KAXN/AXN METAR and TAF weather

Enter ICAO airport designator
Station Type Date Time Source
KAXN METAR 2021/07/30 07:53 UTC NOAA

KAXN 300753Z AUTO 09006KT 3SM HZ SCT030 19/13 A3019 RMK AO2 SLP219 T01890128


Station Type Date Time Source
KAXN Decoded METAR 2021/07/30 07:53 UTC NOAA

CHANDLER FIELD, MN, United States (KAXN) 45-52N 095-24W 433M
Jul 30, 2021 - 03:53 AM EDT / 2021.07.30 0753 UTC
Wind: from the E (090 degrees) at 7 MPH (6 KT):0
Visibility: 3 mile(s):0
Sky conditions: partly cloudy
Weather: haze
Temperature: 66.0 F (18.9 C)
Dew Point: 55.0 F (12.8 C)
Relative Humidity: 67%
Pressure (altimeter): 30.19 in. Hg (1022 hPa)
ob: KAXN 300753Z AUTO 09006KT 3SM HZ SCT030 19/13 A3019 RMK AO2 SLP219 T01890128
cycle: 8

Station Type Date Time Source
KAXN TAF 2021/07/30 06:22 UTC NOAA

TAF KAXN 300520Z 3006/3106 05007KT 2SM FU BKN035
TEMPO 3006/3009 5SM FU SCT200
FM300900 07004KT 6SM HZ BKN200
FM301300 13003KT P6SM BKN250
FM301500 20006KT P6SM BKN250
FM302100 22008KT P6SM SCT250

Example: see airport list